createdAt,value
2019-04-03T00:16:22.698Z,9.30
2019-04-03T00:46:26.603Z,8.80
2019-04-03T01:16:32.280Z,8.40
2019-04-03T01:46:35.859Z,8.10
2019-04-03T02:16:39.894Z,7.80
2019-04-03T02:46:43.807Z,7.60
2019-04-03T03:16:50.321Z,7.40
2019-04-03T03:46:54.459Z,7.60
2019-04-03T04:16:58.615Z,7.30
2019-04-03T04:47:02.554Z,7.40
2019-04-03T05:17:06.437Z,7.60
2019-04-03T05:47:10.246Z,8.60
2019-04-03T06:17:14.110Z,9.20
2019-04-03T06:47:17.848Z,9.90
2019-04-03T07:17:21.808Z,11.20
2019-04-03T07:47:25.581Z,12.50
2019-04-03T08:17:29.399Z,13.10
2019-04-03T08:47:36.711Z,13.90
2019-04-03T09:17:39.515Z,14.30
2019-04-03T09:47:43.318Z,16.00
2019-04-03T10:17:47.534Z,18.70
2019-04-03T10:47:51.528Z,19.30
2019-04-03T11:17:55.408Z,19.00
2019-04-03T11:47:59.212Z,19.00
2019-04-03T12:18:03.074Z,19.40
2019-04-03T12:48:06.905Z,19.60
2019-04-03T13:18:10.987Z,19.70
2019-04-03T13:48:15.475Z,20.10
2019-04-03T14:18:19.475Z,20.40
2019-04-03T14:48:24.113Z,20.00
2019-04-03T15:18:29.101Z,20.10
2019-04-03T15:48:32.898Z,20.00
2019-04-03T16:18:38.551Z,19.60
2019-04-03T16:48:42.310Z,18.80
2019-04-03T17:18:47.492Z,18.10
2019-04-03T17:48:53.714Z,17.40
2019-04-03T18:18:58.494Z,16.50
2019-04-03T18:49:02.378Z,15.60
2019-04-03T19:19:08.198Z,14.90
2019-04-03T19:49:11.960Z,14.90
2019-04-03T20:19:15.924Z,14.20
2019-04-03T20:49:19.754Z,13.80
2019-04-03T21:19:23.571Z,13.60
2019-04-03T21:49:27.665Z,13.50
2019-04-03T22:19:31.617Z,13.30
2019-04-03T22:49:35.365Z,13.30
2019-04-03T23:19:39.217Z,12.90
2019-04-03T23:49:43.117Z,12.40
